createdAt,value
2018-11-03T00:05:02.399Z,100.00
2018-11-03T00:10:06.794Z,99.95
2018-11-03T00:15:11.209Z,100.00
2018-11-03T00:20:14.485Z,100.00
2018-11-03T00:25:17.738Z,100.00
2018-11-03T00:30:20.976Z,100.00
2018-11-03T00:35:24.180Z,100.00
2018-11-03T00:40:27.519Z,99.86
2018-11-03T00:45:30.607Z,99.38
2018-11-03T00:50:33.870Z,99.72
2018-11-03T00:55:37.351Z,99.48
2018-11-03T01:00:41.112Z,99.18
2018-11-03T01:05:44.236Z,99.25
2018-11-03T01:10:50.841Z,98.40
2018-11-03T01:15:54.286Z,99.40
2018-11-03T01:20:57.540Z,99.21
2018-11-03T01:26:00.745Z,98.72
2018-11-03T01:31:04.027Z,99.24
2018-11-03T01:36:07.427Z,99.22
2018-11-03T01:41:10.636Z,99.93
2018-11-03T01:46:13.861Z,100.00
2018-11-03T01:51:17.785Z,100.00
2018-11-03T01:56:21.052Z,100.00
2018-11-03T02:01:24.261Z,100.00
2018-11-03T02:06:27.473Z,100.00
2018-11-03T02:11:30.784Z,100.00
2018-11-03T02:16:34.161Z,100.00
2018-11-03T02:21:37.467Z,100.00
2018-11-03T02:26:40.649Z,100.00
2018-11-03T02:31:43.838Z,100.00
2018-11-03T02:36:47.166Z,100.00
2018-11-03T02:41:50.643Z,100.00
2018-11-03T02:46:53.919Z,100.00
2018-11-03T02:51:57.226Z,100.00
2018-11-03T02:57:00.620Z,100.00
2018-11-03T03:02:04.203Z,100.00
2018-11-03T03:07:07.446Z,100.00
2018-11-03T03:12:10.964Z,100.00
2018-11-03T03:17:14.284Z,100.00
2018-11-03T03:22:17.519Z,100.00
2018-11-03T03:27:20.820Z,100.00
2018-11-03T03:32:24.140Z,100.00
2018-11-03T03:37:27.453Z,100.00
2018-11-03T03:42:30.677Z,100.00
2018-11-03T03:47:33.876Z,100.00
2018-11-03T03:52:37.122Z,100.00
2018-11-03T03:57:40.362Z,100.00
2018-11-03T04:02:43.537Z,100.00
2018-11-03T04:07:46.763Z,100.00
2018-11-03T04:12:50.007Z,100.00
2018-11-03T04:17:53.377Z,100.00
2018-11-03T04:22:56.940Z,100.00
2018-11-03T04:28:00.198Z,100.00
2018-11-03T04:33:03.492Z,100.00
2018-11-03T04:38:06.715Z,100.00
2018-11-03T04:43:09.874Z,100.00
2018-11-03T04:48:13.133Z,100.00
2018-11-03T04:53:17.944Z,100.00
2018-11-03T04:58:21.919Z,100.00
2018-11-03T05:03:26.550Z,100.00
2018-11-03T05:08:29.838Z,100.00
2018-11-03T05:13:33.192Z,100.00
2018-11-03T05:18:36.413Z,100.00
2018-11-03T05:23:39.664Z,100.00
2018-11-03T05:28:42.878Z,100.00
2018-11-03T05:33:46.135Z,100.00
2018-11-03T05:38:49.425Z,100.00
2018-11-03T05:43:52.697Z,100.00
2018-11-03T05:48:55.945Z,100.00
2018-11-03T05:53:59.143Z,100.00
2018-11-03T05:59:02.531Z,100.00
2018-11-03T06:04:05.844Z,100.00
2018-11-03T06:09:09.652Z,100.00
2018-11-03T06:14:13.019Z,100.00
2018-11-03T06:19:17.493Z,100.00
2018-11-03T06:24:21.453Z,100.00
2018-11-03T06:29:24.929Z,100.00
2018-11-03T06:34:28.402Z,100.00
2018-11-03T06:39:31.726Z,100.00
2018-11-03T06:44:34.967Z,100.00
2018-11-03T06:49:38.233Z,100.00
2018-11-03T06:54:41.469Z,100.00
2018-11-03T06:59:45.285Z,100.00
2018-11-03T07:04:49.066Z,99.97
2018-11-03T07:09:52.413Z,99.09
2018-11-03T07:14:55.766Z,97.50
2018-11-03T07:20:00.123Z,97.30
2018-11-03T07:25:03.407Z,96.03
2018-11-03T07:30:09.369Z,94.96
2018-11-03T07:35:12.668Z,93.69
2018-11-03T07:40:15.868Z,90.81
2018-11-03T07:45:19.236Z,88.98
2018-11-03T07:50:23.323Z,87.48
2018-11-03T07:55:27.125Z,88.14
2018-11-03T08:00:31.593Z,86.72
2018-11-03T08:05:35.571Z,86.72
2018-11-03T08:10:39.041Z,84.17
2018-11-03T08:15:42.458Z,82.53
2018-11-03T08:20:45.830Z,84.10
2018-11-03T08:25:49.467Z,83.56
2018-11-03T08:30:52.854Z,84.79
2018-11-03T08:35:56.249Z,81.22
2018-11-03T08:40:59.761Z,76.84
2018-11-03T08:46:03.308Z,78.40
2018-11-03T08:51:06.742Z,83.47
2018-11-03T08:56:10.658Z,80.76
2018-11-03T09:01:14.844Z,79.23
2018-11-03T09:06:18.733Z,78.68
2018-11-03T09:11:22.003Z,80.48
2018-11-03T09:16:39.759Z,79.76
2018-11-03T09:21:45.560Z,78.09
2018-11-03T09:26:49.117Z,77.37
2018-11-03T09:31:53.230Z,78.09
2018-11-03T09:36:58.305Z,76.95
2018-11-03T09:42:04.004Z,78.66
2018-11-03T09:47:09.712Z,74.96
2018-11-03T09:52:13.510Z,75.33
2018-11-03T09:57:17.082Z,74.56
2018-11-03T10:02:20.379Z,70.38
2018-11-03T10:07:23.668Z,68.47
2018-11-03T10:12:30.023Z,71.40
2018-11-03T10:17:33.942Z,68.02
2018-11-03T10:22:38.024Z,66.19
2018-11-03T10:27:41.983Z,66.87
2018-11-03T10:32:45.322Z,65.86
2018-11-03T10:37:48.766Z,65.28
2018-11-03T10:42:52.036Z,65.66
2018-11-03T10:47:55.335Z,68.90
2018-11-03T10:52:58.510Z,65.60
2018-11-03T10:58:01.810Z,62.95
2018-11-03T11:03:07.953Z,62.83
2018-11-03T11:08:11.706Z,62.34
2018-11-03T11:13:15.073Z,62.47
2018-11-03T11:18:18.364Z,58.52
2018-11-03T11:23:21.724Z,55.78
2018-11-03T11:28:25.233Z,58.14
2018-11-03T11:33:28.563Z,57.20
2018-11-03T11:38:32.117Z,56.70
2018-11-03T11:43:35.977Z,57.02
2018-11-03T11:48:39.804Z,57.11
2018-11-03T11:53:42.993Z,57.48
2018-11-03T11:58:46.248Z,59.47
2018-11-03T12:03:49.515Z,58.66
2018-11-03T12:08:52.985Z,60.23
2018-11-03T12:13:56.693Z,60.10
2018-11-03T12:19:00.143Z,60.13
2018-11-03T12:24:05.621Z,61.17
2018-11-03T12:29:08.899Z,59.69
2018-11-03T12:34:12.117Z,60.19
2018-11-03T12:39:17.612Z,60.11
2018-11-03T12:44:24.712Z,59.71
2018-11-03T12:49:28.964Z,58.85
2018-11-03T12:54:33.184Z,58.42
2018-11-03T12:59:36.958Z,57.34
2018-11-03T13:04:40.229Z,56.59
2018-11-03T13:09:43.775Z,55.93
2018-11-03T13:14:46.881Z,56.54
2018-11-03T13:19:50.410Z,57.83
2018-11-03T13:24:54.271Z,60.53
2018-11-03T13:29:57.975Z,59.79
2018-11-03T13:35:02.107Z,62.24
2018-11-03T13:40:06.834Z,62.62
2018-11-03T13:45:10.205Z,61.79
2018-11-03T13:50:13.792Z,60.92
2018-11-03T13:55:19.827Z,61.26
2018-11-03T14:00:24.100Z,62.43
2018-11-03T14:05:33.062Z,61.99
2018-11-03T14:10:36.673Z,62.65
2018-11-03T14:15:40.110Z,64.24
2018-11-03T14:20:43.358Z,64.09
2018-11-03T14:25:46.651Z,64.97
2018-11-03T14:30:49.826Z,66.50
2018-11-03T14:35:53.213Z,68.00
2018-11-03T14:41:02.141Z,69.78
2018-11-03T14:46:05.399Z,71.08
2018-11-03T14:51:08.854Z,72.88
2018-11-03T14:56:11.948Z,73.85
2018-11-03T15:01:20.831Z,75.39
2018-11-03T15:06:29.903Z,76.24
2018-11-03T15:11:33.445Z,75.11
2018-11-03T15:16:36.763Z,75.36
2018-11-03T15:21:40.016Z,76.15
2018-11-03T15:26:43.558Z,77.54
2018-11-03T15:31:46.725Z,78.67
2018-11-03T15:36:49.935Z,79.95
2018-11-03T15:41:53.077Z,80.78
2018-11-03T15:47:02.893Z,82.08
2018-11-03T15:52:06.433Z,82.88
2018-11-03T15:57:09.878Z,85.09
2018-11-03T16:02:13.384Z,86.67
2018-11-03T16:07:22.646Z,87.66
2018-11-03T16:12:26.833Z,89.14
2018-11-03T16:17:30.152Z,90.94
2018-11-03T16:22:33.775Z,92.21
2018-11-03T16:27:37.142Z,94.33
2018-11-03T16:32:40.662Z,95.28
2018-11-03T16:37:43.798Z,96.09
2018-11-03T16:42:47.372Z,96.94
2018-11-03T16:47:50.598Z,97.75
2018-11-03T16:52:54.555Z,98.74
2018-11-03T16:57:57.832Z,100.00
2018-11-03T17:03:01.163Z,99.15
2018-11-03T17:08:04.559Z,99.76
2018-11-03T17:13:07.991Z,100.00
2018-11-03T17:18:13.282Z,100.00
2018-11-03T17:23:17.606Z,100.00
2018-11-03T17:28:21.379Z,100.00
2018-11-03T17:33:25.069Z,100.00
2018-11-03T17:38:28.219Z,100.00
2018-11-03T17:43:32.387Z,100.00
2018-11-03T17:48:36.080Z,100.00
2018-11-03T17:53:39.545Z,100.00
2018-11-03T17:58:42.942Z,100.00
2018-11-03T18:03:46.379Z,100.00
2018-11-03T18:08:49.985Z,100.00
2018-11-03T18:13:53.887Z,100.00
2018-11-03T18:18:57.298Z,100.00
2018-11-03T18:24:00.540Z,100.00
2018-11-03T18:29:04.074Z,100.00
2018-11-03T18:34:07.482Z,100.00
2018-11-03T18:39:18.328Z,100.00
2018-11-03T18:44:28.748Z,100.00
2018-11-03T18:49:32.680Z,100.00
2018-11-03T18:54:36.060Z,100.00
2018-11-03T18:59:39.833Z,100.00
2018-11-03T19:04:43.089Z,100.00
2018-11-03T19:09:52.077Z,100.00
2018-11-03T19:14:55.472Z,100.00
2018-11-03T19:19:58.795Z,100.00
2018-11-03T19:25:02.071Z,100.00
2018-11-03T19:30:08.862Z,100.00
2018-11-03T19:35:17.620Z,100.00
2018-11-03T19:40:27.978Z,100.00
2018-11-03T19:45:31.280Z,100.00
2018-11-03T19:50:36.289Z,100.00
2018-11-03T19:55:39.563Z,100.00
2018-11-03T20:00:48.794Z,100.00
2018-11-03T20:06:00.509Z,100.00
2018-11-03T20:11:07.006Z,100.00
2018-11-03T20:16:12.969Z,100.00
2018-11-03T20:21:22.170Z,100.00
2018-11-03T20:26:32.958Z,100.00
2018-11-03T20:31:41.710Z,100.00
2018-11-03T20:36:50.555Z,100.00
2018-11-03T20:42:00.014Z,100.00
2018-11-03T20:47:09.747Z,100.00
2018-11-03T20:52:23.045Z,100.00
2018-11-03T20:57:33.934Z,100.00
2018-11-03T21:02:45.410Z,100.00
2018-11-03T21:07:55.810Z,100.00
2018-11-03T21:13:04.619Z,100.00
2018-11-03T21:18:14.586Z,100.00
2018-11-03T21:23:18.632Z,100.00
2018-11-03T21:28:25.185Z,100.00
2018-11-03T21:33:31.318Z,100.00
2018-11-03T21:38:36.443Z,100.00
2018-11-03T21:43:41.258Z,100.00
2018-11-03T21:48:47.256Z,100.00
2018-11-03T21:53:52.353Z,100.00
2018-11-03T21:58:58.528Z,100.00
2018-11-03T22:04:01.946Z,100.00
2018-11-03T22:09:07.690Z,100.00
2018-11-03T22:14:10.801Z,100.00
2018-11-03T22:19:14.072Z,100.00
2018-11-03T22:24:17.618Z,100.00
2018-11-03T22:29:20.935Z,100.00
2018-11-03T22:34:24.219Z,100.00
2018-11-03T22:39:27.420Z,100.00
2018-11-03T22:44:31.907Z,100.00
2018-11-03T22:49:35.458Z,100.00
2018-11-03T22:54:38.796Z,100.00
2018-11-03T22:59:42.148Z,100.00
2018-11-03T23:04:45.967Z,100.00
2018-11-03T23:09:49.508Z,100.00
2018-11-03T23:14:53.673Z,100.00
2018-11-03T23:19:57.106Z,100.00
2018-11-03T23:25:01.646Z,100.00
2018-11-03T23:30:07.740Z,100.00
2018-11-03T23:35:10.792Z,100.00
2018-11-03T23:40:14.127Z,100.00
2018-11-03T23:45:17.476Z,100.00
2018-11-03T23:50:20.824Z,100.00
2018-11-03T23:55:24.166Z,100.00
